sensor_id;sensor_type;location;lat;lon;timestamp;P1;durP1;ratioP1;P2;durP2;ratioP2
42742;SDS011;28397;44.552;-0.848;2023-03-12T00:00:29;7.55;;;3.47;;
42742;SDS011;28397;44.552;-0.848;2023-03-12T00:02:55;7.47;;;4.53;;
42742;SDS011;28397;44.552;-0.848;2023-03-12T00:05:21;7.57;;;4.22;;
42742;SDS011;28397;44.552;-0.848;2023-03-12T00:07:49;6.80;;;3.10;;
42742;SDS011;28397;44.552;-0.848;2023-03-12T00:10:15;4.57;;;2.35;;
42742;SDS011;28397;44.552;-0.848;2023-03-12T00:12:42;6.43;;;2.58;;
42742;SDS011;28397;44.552;-0.848;2023-03-12T00:15:07;9.90;;;2.80;;
42742;SDS011;28397;44.552;-0.848;2023-03-12T00:17:34;4.85;;;2.50;;
42742;SDS011;28397;44.552;-0.848;2023-03-12T00:19:59;5.25;;;2.20;;
42742;SDS011;28397;44.552;-0.848;2023-03-12T00:22:25;7.32;;;2.17;;
42742;SDS011;28397;44.552;-0.848;2023-03-12T00:24:52;4.30;;;2.20;;
42742;SDS011;28397;44.552;-0.848;2023-03-12T00:27:18;4.05;;;1.90;;
42742;SDS011;28397;44.552;-0.848;2023-03-12T00:29:44;4.80;;;2.00;;
42742;SDS011;28397;44.552;-0.848;2023-03-12T00:32:10;3.80;;;2.00;;
42742;SDS011;28397;44.552;-0.848;2023-03-12T00:34:36;4.13;;;2.17;;
42742;SDS011;28397;44.552;-0.848;2023-03-12T00:37:01;4.18;;;1.98;;
42742;SDS011;28397;44.552;-0.848;2023-03-12T00:39:27;5.90;;;2.28;;
42742;SDS011;28397;44.552;-0.848;2023-03-12T00:41:53;3.72;;;2.20;;
42742;SDS011;28397;44.552;-0.848;2023-03-12T00:44:19;4.00;;;1.90;;
42742;SDS011;28397;44.552;-0.848;2023-03-12T00:46:45;5.15;;;2.10;;
42742;SDS011;28397;44.552;-0.848;2023-03-12T00:49:10;3.90;;;2.15;;
42742;SDS011;28397;44.552;-0.848;2023-03-12T00:51:36;5.25;;;2.50;;
42742;SDS011;28397;44.552;-0.848;2023-03-12T00:54:02;8.38;;;2.60;;
42742;SDS011;28397;44.552;-0.848;2023-03-12T00:56:28;5.90;;;2.55;;
42742;SDS011;28397;44.552;-0.848;2023-03-12T00:58:54;6.45;;;2.47;;
42742;SDS011;28397;44.552;-0.848;2023-03-12T01:01:20;5.85;;;2.72;;
42742;SDS011;28397;44.552;-0.848;2023-03-12T01:03:46;5.07;;;2.40;;
42742;SDS011;28397;44.552;-0.848;2023-03-12T01:06:13;8.07;;;3.05;;
42742;SDS011;28397;44.552;-0.848;2023-03-12T01:08:39;5.35;;;2.40;;
42742;SDS011;28397;44.552;-0.848;2023-03-12T01:11:05;5.35;;;2.67;;
42742;SDS011;28397;44.552;-0.848;2023-03-12T01:13:30;7.38;;;2.65;;
42742;SDS011;28397;44.552;-0.848;2023-03-12T01:15:56;6.78;;;2.55;;
42742;SDS011;28397;44.552;-0.848;2023-03-12T01:18:22;8.27;;;2.80;;
42742;SDS011;28397;44.552;-0.848;2023-03-12T01:20:47;9.30;;;2.88;;
42742;SDS011;28397;44.552;-0.848;2023-03-12T01:23:13;7.72;;;2.90;;
42742;SDS011;28397;44.552;-0.848;2023-03-12T01:25:40;6.82;;;2.60;;
42742;SDS011;28397;44.552;-0.848;2023-03-12T01:28:06;5.40;;;2.70;;
42742;SDS011;28397;44.552;-0.848;2023-03-12T01:30:31;5.50;;;2.70;;
42742;SDS011;28397;44.552;-0.848;2023-03-12T01:32:57;3.22;;;2.38;;
42742;SDS011;28397;44.552;-0.848;2023-03-12T01:35:23;3.85;;;2.13;;
42742;SDS011;28397;44.552;-0.848;2023-03-12T01:37:49;2.70;;;1.80;;
42742;SDS011;28397;44.552;-0.848;2023-03-12T01:40:16;4.53;;;2.03;;
42742;SDS011;28397;44.552;-0.848;2023-03-12T01:42:51;1.73;;;1.50;;
42742;SDS011;28397;44.552;-0.848;2023-03-12T01:48:20;2.35;;;1.58;;
42742;SDS011;28397;44.552;-0.848;2023-03-12T01:50:47;2.47;;;1.52;;
42742;SDS011;28397;44.552;-0.848;2023-03-12T01:53:13;2.38;;;1.50;;
42742;SDS011;28397;44.552;-0.848;2023-03-12T01:55:39;4.47;;;1.70;;
42742;SDS011;28397;44.552;-0.848;2023-03-12T01:58:05;3.80;;;1.90;;
42742;SDS011;28397;44.552;-0.848;2023-03-12T02:00:32;2.17;;;1.67;;
42742;SDS011;28397;44.552;-0.848;2023-03-12T02:02:59;3.15;;;1.85;;
42742;SDS011;28397;44.552;-0.848;2023-03-12T02:08:15;3.35;;;1.70;;
42742;SDS011;28397;44.552;-0.848;2023-03-12T02:10:42;3.08;;;1.38;;
42742;SDS011;28397;44.552;-0.848;2023-03-12T02:13:08;3.38;;;1.52;;
42742;SDS011;28397;44.552;-0.848;2023-03-12T02:15:35;2.47;;;1.42;;
42742;SDS011;28397;44.552;-0.848;2023-03-12T02:18:02;4.60;;;1.50;;
42742;SDS011;28397;44.552;-0.848;2023-03-12T02:23:16;4.63;;;1.90;;
42742;SDS011;28397;44.552;-0.848;2023-03-12T02:25:55;6.63;;;1.80;;
42742;SDS011;28397;44.552;-0.848;2023-03-12T02:28:24;4.43;;;1.63;;
42742;SDS011;28397;44.552;-0.848;2023-03-12T02:30:53;5.60;;;1.50;;
42742;SDS011;28397;44.552;-0.848;2023-03-12T02:33:23;5.22;;;1.50;;
42742;SDS011;28397;44.552;-0.848;2023-03-12T02:35:49;3.15;;;1.10;;
42742;SDS011;28397;44.552;-0.848;2023-03-12T02:43:38;2.17;;;1.00;;
42742;SDS011;28397;44.552;-0.848;2023-03-12T02:46:05;2.60;;;0.95;;
42742;SDS011;28397;44.552;-0.848;2023-03-12T02:48:32;1.92;;;1.10;;
42742;SDS011;28397;44.552;-0.848;2023-03-12T02:50:57;2.33;;;0.90;;
42742;SDS011;28397;44.552;-0.848;2023-03-12T02:53:23;2.35;;;0.88;;
42742;SDS011;28397;44.552;-0.848;2023-03-12T02:55:49;2.80;;;0.90;;
42742;SDS011;28397;44.552;-0.848;2023-03-12T02:58:15;2.42;;;1.10;;
42742;SDS011;28397;44.552;-0.848;2023-03-12T03:00:40;3.88;;;1.10;;
42742;SDS011;28397;44.552;-0.848;2023-03-12T03:03:06;3.35;;;0.93;;
42742;SDS011;28397;44.552;-0.848;2023-03-12T03:05:32;3.65;;;1.08;;
42742;SDS011;28397;44.552;-0.848;2023-03-12T03:08:01;3.83;;;1.10;;
42742;SDS011;28397;44.552;-0.848;2023-03-12T03:10:27;2.92;;;1.00;;
42742;SDS011;28397;44.552;-0.848;2023-03-12T03:12:53;4.25;;;1.15;;
42742;SDS011;28397;44.552;-0.848;2023-03-12T03:15:19;4.65;;;1.33;;
42742;SDS011;28397;44.552;-0.848;2023-03-12T03:17:44;4.07;;;1.20;;
42742;SDS011;28397;44.552;-0.848;2023-03-12T03:20:10;6.95;;;1.40;;
42742;SDS011;28397;44.552;-0.848;2023-03-12T03:22:36;4.22;;;1.08;;
42742;SDS011;28397;44.552;-0.848;2023-03-12T03:25:02;5.25;;;1.15;;
42742;SDS011;28397;44.552;-0.848;2023-03-12T03:27:28;7.47;;;1.50;;
42742;SDS011;28397;44.552;-0.848;2023-03-12T03:29:54;5.25;;;1.40;;
42742;SDS011;28397;44.552;-0.848;2023-03-12T03:32:20;10.73;;;1.70;;
42742;SDS011;28397;44.552;-0.848;2023-03-12T03:34:45;7.43;;;1.60;;
42742;SDS011;28397;44.552;-0.848;2023-03-12T03:37:11;7.32;;;1.83;;
42742;SDS011;28397;44.552;-0.848;2023-03-12T03:39:37;8.40;;;1.92;;
42742;SDS011;28397;44.552;-0.848;2023-03-12T03:42:03;6.03;;;1.50;;
42742;SDS011;28397;44.552;-0.848;2023-03-12T03:44:29;10.50;;;1.75;;
42742;SDS011;28397;44.552;-0.848;2023-03-12T03:46:54;7.40;;;1.60;;
42742;SDS011;28397;44.552;-0.848;2023-03-12T03:49:20;5.40;;;1.52;;
42742;SDS011;28397;44.552;-0.848;2023-03-12T03:51:46;5.85;;;1.42;;
42742;SDS011;28397;44.552;-0.848;2023-03-12T03:54:12;4.10;;;1.38;;
42742;SDS011;28397;44.552;-0.848;2023-03-12T03:56:39;4.80;;;1.33;;
42742;SDS011;28397;44.552;-0.848;2023-03-12T03:59:05;6.10;;;1.70;;
42742;SDS011;28397;44.552;-0.848;2023-03-12T04:01:31;5.95;;;1.60;;
42742;SDS011;28397;44.552;-0.848;2023-03-12T04:03:57;4.93;;;1.33;;
42742;SDS011;28397;44.552;-0.848;2023-03-12T04:06:23;3.95;;;1.30;;
42742;SDS011;28397;44.552;-0.848;2023-03-12T04:08:49;5.63;;;1.60;;
42742;SDS011;28397;44.552;-0.848;2023-03-12T04:11:16;4.25;;;1.38;;
42742;SDS011;28397;44.552;-0.848;2023-03-12T04:13:44;5.00;;;1.60;;
42742;SDS011;28397;44.552;-0.848;2023-03-12T04:16:10;5.70;;;1.52;;
42742;SDS011;28397;44.552;-0.848;2023-03-12T04:18:37;6.03;;;1.70;;
42742;SDS011;28397;44.552;-0.848;2023-03-12T04:21:04;7.68;;;1.58;;
42742;SDS011;28397;44.552;-0.848;2023-03-12T04:23:31;5.70;;;1.40;;
42742;SDS011;28397;44.552;-0.848;2023-03-12T04:25:57;9.32;;;1.70;;
42742;SDS011;28397;44.552;-0.848;2023-03-12T04:28:23;6.80;;;1.60;;
42742;SDS011;28397;44.552;-0.848;2023-03-12T04:30:56;6.72;;;1.60;;
42742;SDS011;28397;44.552;-0.848;2023-03-12T04:33:24;5.28;;;1.60;;
42742;SDS011;28397;44.552;-0.848;2023-03-12T04:35:54;8.20;;;1.70;;
42742;SDS011;28397;44.552;-0.848;2023-03-12T04:38:20;7.95;;;1.70;;
42742;SDS011;28397;44.552;-0.848;2023-03-12T04:40:56;5.30;;;1.50;;
42742;SDS011;28397;44.552;-0.848;2023-03-12T04:43:26;6.32;;;1.52;;
42742;SDS011;28397;44.552;-0.848;2023-03-12T04:45:52;7.78;;;1.73;;
42742;SDS011;28397;44.552;-0.848;2023-03-12T04:48:18;4.10;;;1.25;;
42742;SDS011;28397;44.552;-0.848;2023-03-12T04:50:44;6.32;;;1.77;;
42742;SDS011;28397;44.552;-0.848;2023-03-12T04:53:10;7.88;;;1.60;;
42742;SDS011;28397;44.552;-0.848;2023-03-12T04:55:35;5.95;;;1.70;;
42742;SDS011;28397;44.552;-0.848;2023-03-12T04:58:01;7.65;;;1.98;;
42742;SDS011;28397;44.552;-0.848;2023-03-12T05:00:27;4.93;;;1.60;;
42742;SDS011;28397;44.552;-0.848;2023-03-12T05:02:53;6.95;;;1.70;;
42742;SDS011;28397;44.552;-0.848;2023-03-12T05:05:18;9.30;;;2.08;;
42742;SDS011;28397;44.552;-0.848;2023-03-12T05:07:44;10.80;;;2.08;;
42742;SDS011;28397;44.552;-0.848;2023-03-12T05:10:10;7.68;;;1.90;;
42742;SDS011;28397;44.552;-0.848;2023-03-12T05:12:36;10.32;;;2.03;;
42742;SDS011;28397;44.552;-0.848;2023-03-12T05:15:01;6.95;;;1.90;;
42742;SDS011;28397;44.552;-0.848;2023-03-12T05:17:27;8.07;;;1.90;;
42742;SDS011;28397;44.552;-0.848;2023-03-12T05:19:53;8.27;;;1.90;;
42742;SDS011;28397;44.552;-0.848;2023-03-12T05:22:19;6.82;;;1.90;;
42742;SDS011;28397;44.552;-0.848;2023-03-12T05:24:45;8.18;;;2.13;;
42742;SDS011;28397;44.552;-0.848;2023-03-12T05:27:10;7.97;;;2.15;;
42742;SDS011;28397;44.552;-0.848;2023-03-12T05:29:36;8.52;;;2.03;;
42742;SDS011;28397;44.552;-0.848;2023-03-12T05:32:02;7.28;;;1.80;;
42742;SDS011;28397;44.552;-0.848;2023-03-12T05:34:28;16.60;;;2.33;;
42742;SDS011;28397;44.552;-0.848;2023-03-12T05:36:57;10.65;;;2.47;;
42742;SDS011;28397;44.552;-0.848;2023-03-12T05:39:24;9.32;;;2.05;;
42742;SDS011;28397;44.552;-0.848;2023-03-12T05:41:51;9.25;;;2.42;;
42742;SDS011;28397;44.552;-0.848;2023-03-12T05:44:21;13.88;;;9.02;;
42742;SDS011;28397;44.552;-0.848;2023-03-12T05:46:48;21.48;;;11.40;;
42742;SDS011;28397;44.552;-0.848;2023-03-12T05:49:14;20.33;;;10.30;;
42742;SDS011;28397;44.552;-0.848;2023-03-12T05:51:40;15.48;;;10.00;;
42742;SDS011;28397;44.552;-0.848;2023-03-12T05:54:07;11.82;;;7.70;;
42742;SDS011;28397;44.552;-0.848;2023-03-12T05:56:35;17.38;;;9.55;;
42742;SDS011;28397;44.552;-0.848;2023-03-12T05:59:01;23.58;;;15.55;;
42742;SDS011;28397;44.552;-0.848;2023-03-12T06:01:27;25.20;;;11.27;;
42742;SDS011;28397;44.552;-0.848;2023-03-12T06:03:54;18.55;;;9.63;;
42742;SDS011;28397;44.552;-0.848;2023-03-12T06:06:20;23.10;;;8.45;;
42742;SDS011;28397;44.552;-0.848;2023-03-12T06:08:47;25.58;;;9.48;;
42742;SDS011;28397;44.552;-0.848;2023-03-12T06:11:13;18.42;;;9.23;;
42742;SDS011;28397;44.552;-0.848;2023-03-12T06:13:39;19.23;;;6.60;;
42742;SDS011;28397;44.552;-0.848;2023-03-12T06:16:06;19.85;;;5.65;;
42742;SDS011;28397;44.552;-0.848;2023-03-12T06:18:36;16.15;;;5.05;;
42742;SDS011;28397;44.552;-0.848;2023-03-12T06:21:15;20.58;;;7.65;;
42742;SDS011;28397;44.552;-0.848;2023-03-12T06:23:42;37.35;;;28.25;;
42742;SDS011;28397;44.552;-0.848;2023-03-12T06:26:08;21.17;;;8.23;;
42742;SDS011;28397;44.552;-0.848;2023-03-12T06:28:35;34.22;;;13.90;;
42742;SDS011;28397;44.552;-0.848;2023-03-12T06:31:01;39.03;;;21.40;;
42742;SDS011;28397;44.552;-0.848;2023-03-12T06:33:27;33.10;;;15.23;;
42742;SDS011;28397;44.552;-0.848;2023-03-12T06:35:56;28.45;;;12.50;;
42742;SDS011;28397;44.552;-0.848;2023-03-12T06:38:24;33.38;;;17.23;;
42742;SDS011;28397;44.552;-0.848;2023-03-12T06:40:56;26.60;;;14.10;;
42742;SDS011;28397;44.552;-0.848;2023-03-12T06:43:30;20.35;;;9.68;;
42742;SDS011;28397;44.552;-0.848;2023-03-12T06:45:58;18.27;;;6.85;;
42742;SDS011;28397;44.552;-0.848;2023-03-12T06:48:24;15.65;;;5.57;;
42742;SDS011;28397;44.552;-0.848;2023-03-12T06:50:52;17.90;;;5.32;;
42742;SDS011;28397;44.552;-0.848;2023-03-12T06:53:18;20.02;;;4.60;;
42742;SDS011;28397;44.552;-0.848;2023-03-12T06:55:44;19.83;;;4.72;;
42742;SDS011;28397;44.552;-0.848;2023-03-12T06:58:10;25.85;;;11.13;;
42742;SDS011;28397;44.552;-0.848;2023-03-12T07:00:36;24.90;;;11.75;;
42742;SDS011;28397;44.552;-0.848;2023-03-12T07:03:02;17.63;;;5.55;;
42742;SDS011;28397;44.552;-0.848;2023-03-12T07:05:28;14.18;;;4.97;;
42742;SDS011;28397;44.552;-0.848;2023-03-12T07:07:55;16.02;;;4.93;;
42742;SDS011;28397;44.552;-0.848;2023-03-12T07:10:21;14.73;;;4.90;;
42742;SDS011;28397;44.552;-0.848;2023-03-12T07:12:47;19.52;;;4.78;;
42742;SDS011;28397;44.552;-0.848;2023-03-12T07:15:13;13.38;;;4.32;;
42742;SDS011;28397;44.552;-0.848;2023-03-12T07:17:39;18.52;;;4.80;;
42742;SDS011;28397;44.552;-0.848;2023-03-12T07:20:05;21.63;;;5.35;;
42742;SDS011;28397;44.552;-0.848;2023-03-12T07:22:31;17.60;;;5.28;;
42742;SDS011;28397;44.552;-0.848;2023-03-12T07:24:57;20.98;;;5.63;;
42742;SDS011;28397;44.552;-0.848;2023-03-12T07:27:23;16.75;;;5.80;;
42742;SDS011;28397;44.552;-0.848;2023-03-12T07:29:49;23.10;;;6.05;;
42742;SDS011;28397;44.552;-0.848;2023-03-12T07:32:14;14.70;;;5.07;;
42742;SDS011;28397;44.552;-0.848;2023-03-12T07:34:40;18.13;;;5.18;;
42742;SDS011;28397;44.552;-0.848;2023-03-12T07:37:06;19.17;;;5.40;;
42742;SDS011;28397;44.552;-0.848;2023-03-12T07:39:32;21.33;;;5.50;;
42742;SDS011;28397;44.552;-0.848;2023-03-12T07:41:57;18.98;;;5.78;;
42742;SDS011;28397;44.552;-0.848;2023-03-12T07:44:23;17.13;;;4.80;;
42742;SDS011;28397;44.552;-0.848;2023-03-12T07:46:50;17.45;;;5.20;;
42742;SDS011;28397;44.552;-0.848;2023-03-12T07:49:17;13.63;;;5.20;;
42742;SDS011;28397;44.552;-0.848;2023-03-12T07:51:44;16.10;;;5.18;;
42742;SDS011;28397;44.552;-0.848;2023-03-12T07:54:09;16.77;;;4.70;;
42742;SDS011;28397;44.552;-0.848;2023-03-12T07:56:35;17.33;;;5.10;;
42742;SDS011;28397;44.552;-0.848;2023-03-12T07:59:01;13.50;;;4.50;;
42742;SDS011;28397;44.552;-0.848;2023-03-12T08:01:26;14.38;;;4.53;;
42742;SDS011;28397;44.552;-0.848;2023-03-12T08:03:59;10.30;;;4.00;;
42742;SDS011;28397;44.552;-0.848;2023-03-12T08:06:25;13.45;;;4.40;;
42742;SDS011;28397;44.552;-0.848;2023-03-12T08:08:51;12.95;;;3.85;;
42742;SDS011;28397;44.552;-0.848;2023-03-12T08:11:17;13.93;;;4.18;;
42742;SDS011;28397;44.552;-0.848;2023-03-12T08:13:43;12.88;;;4.05;;
42742;SDS011;28397;44.552;-0.848;2023-03-12T08:16:10;12.30;;;5.25;;
42742;SDS011;28397;44.552;-0.848;2023-03-12T08:18:36;12.82;;;4.10;;
42742;SDS011;28397;44.552;-0.848;2023-03-12T08:21:02;13.52;;;4.43;;
42742;SDS011;28397;44.552;-0.848;2023-03-12T08:23:28;15.95;;;4.75;;
42742;SDS011;28397;44.552;-0.848;2023-03-12T08:25:54;11.13;;;4.35;;
42742;SDS011;28397;44.552;-0.848;2023-03-12T08:28:21;15.30;;;4.95;;
42742;SDS011;28397;44.552;-0.848;2023-03-12T08:30:49;10.88;;;4.07;;
42742;SDS011;28397;44.552;-0.848;2023-03-12T08:33:17;12.13;;;4.93;;
42742;SDS011;28397;44.552;-0.848;2023-03-12T08:35:43;15.52;;;4.80;;
42742;SDS011;28397;44.552;-0.848;2023-03-12T08:38:09;14.77;;;4.72;;
42742;SDS011;28397;44.552;-0.848;2023-03-12T08:40:35;13.85;;;4.65;;
42742;SDS011;28397;44.552;-0.848;2023-03-12T08:43:01;13.30;;;4.55;;
42742;SDS011;28397;44.552;-0.848;2023-03-12T08:45:28;14.80;;;4.65;;
42742;SDS011;28397;44.552;-0.848;2023-03-12T08:47:54;18.88;;;4.85;;
42742;SDS011;28397;44.552;-0.848;2023-03-12T08:50:20;16.02;;;4.65;;
42742;SDS011;28397;44.552;-0.848;2023-03-12T08:52:46;14.30;;;4.47;;
42742;SDS011;28397;44.552;-0.848;2023-03-12T08:55:13;15.45;;;4.18;;
42742;SDS011;28397;44.552;-0.848;2023-03-12T08:57:38;11.75;;;3.92;;
42742;SDS011;28397;44.552;-0.848;2023-03-12T09:00:05;12.57;;;4.18;;
42742;SDS011;28397;44.552;-0.848;2023-03-12T09:02:35;12.07;;;4.15;;
42742;SDS011;28397;44.552;-0.848;2023-03-12T09:05:02;15.70;;;4.30;;
42742;SDS011;28397;44.552;-0.848;2023-03-12T09:07:29;15.10;;;4.10;;
42742;SDS011;28397;44.552;-0.848;2023-03-12T09:09:55;13.07;;;3.95;;
42742;SDS011;28397;44.552;-0.848;2023-03-12T09:12:21;12.02;;;3.97;;
42742;SDS011;28397;44.552;-0.848;2023-03-12T09:14:48;12.52;;;3.70;;
42742;SDS011;28397;44.552;-0.848;2023-03-12T09:17:14;14.13;;;3.92;;
42742;SDS011;28397;44.552;-0.848;2023-03-12T09:19:40;12.40;;;3.75;;
42742;SDS011;28397;44.552;-0.848;2023-03-12T09:22:05;11.80;;;4.00;;
42742;SDS011;28397;44.552;-0.848;2023-03-12T09:24:31;13.63;;;3.50;;
42742;SDS011;28397;44.552;-0.848;2023-03-12T09:26:57;13.63;;;3.90;;
42742;SDS011;28397;44.552;-0.848;2023-03-12T09:29:23;11.20;;;3.75;;
42742;SDS011;28397;44.552;-0.848;2023-03-12T09:31:49;11.60;;;3.50;;
42742;SDS011;28397;44.552;-0.848;2023-03-12T09:34:15;10.65;;;3.58;;
42742;SDS011;28397;44.552;-0.848;2023-03-12T09:36:41;11.07;;;3.40;;
42742;SDS011;28397;44.552;-0.848;2023-03-12T09:39:07;14.73;;;3.90;;
42742;SDS011;28397;44.552;-0.848;2023-03-12T09:41:34;12.85;;;3.33;;
42742;SDS011;28397;44.552;-0.848;2023-03-12T09:47:06;11.75;;;2.72;;
42742;SDS011;28397;44.552;-0.848;2023-03-12T09:52:16;11.65;;;3.17;;
42742;SDS011;28397;44.552;-0.848;2023-03-12T09:54:44;13.70;;;3.50;;
42742;SDS011;28397;44.552;-0.848;2023-03-12T09:57:22;11.65;;;3.10;;
42742;SDS011;28397;44.552;-0.848;2023-03-12T09:59:50;9.80;;;3.53;;
42742;SDS011;28397;44.552;-0.848;2023-03-12T10:05:05;11.60;;;2.90;;
42742;SDS011;28397;44.552;-0.848;2023-03-12T10:07:57;15.27;;;3.17;;
42742;SDS011;28397;44.552;-0.848;2023-03-12T10:21:29;9.90;;;2.65;;
42742;SDS011;28397;44.552;-0.848;2023-03-12T10:26:37;9.35;;;2.70;;
42742;SDS011;28397;44.552;-0.848;2023-03-12T10:34:59;7.05;;;2.75;;
42742;SDS011;28397;44.552;-0.848;2023-03-12T10:37:30;8.05;;;3.00;;
42742;SDS011;28397;44.552;-0.848;2023-03-12T10:40:05;8.80;;;3.47;;
42742;SDS011;28397;44.552;-0.848;2023-03-12T10:42:36;9.15;;;2.60;;
42742;SDS011;28397;44.552;-0.848;2023-03-12T10:50:12;9.43;;;2.90;;
42742;SDS011;28397;44.552;-0.848;2023-03-12T10:52:40;10.50;;;3.72;;
42742;SDS011;28397;44.552;-0.848;2023-03-12T10:57:50;8.10;;;3.20;;
42742;SDS011;28397;44.552;-0.848;2023-03-12T11:00:24;6.75;;;2.63;;
42742;SDS011;28397;44.552;-0.848;2023-03-12T11:02:56;6.70;;;2.40;;
42742;SDS011;28397;44.552;-0.848;2023-03-12T11:05:30;6.93;;;3.05;;
42742;SDS011;28397;44.552;-0.848;2023-03-12T11:07:56;10.45;;;3.15;;
42742;SDS011;28397;44.552;-0.848;2023-03-12T11:21:26;6.50;;;1.80;;
42742;SDS011;28397;44.552;-0.848;2023-03-12T11:26:23;4.18;;;1.60;;
42742;SDS011;28397;44.552;-0.848;2023-03-12T11:31:28;3.70;;;1.60;;
42742;SDS011;28397;44.552;-0.848;2023-03-12T11:34:26;4.78;;;1.63;;
42742;SDS011;28397;44.552;-0.848;2023-03-12T11:45:25;4.00;;;1.50;;
42742;SDS011;28397;44.552;-0.848;2023-03-12T11:48:20;5.32;;;2.10;;
42742;SDS011;28397;44.552;-0.848;2023-03-12T11:54:07;5.03;;;1.85;;
42742;SDS011;28397;44.552;-0.848;2023-03-12T12:15:14;6.90;;;2.00;;
42742;SDS011;28397;44.552;-0.848;2023-03-12T12:27:00;6.00;;;1.90;;
42742;SDS011;28397;44.552;-0.848;2023-03-12T12:32:12;4.35;;;1.40;;
42742;SDS011;28397;44.552;-0.848;2023-03-12T12:42:46;3.22;;;1.60;;
42742;SDS011;28397;44.552;-0.848;2023-03-12T12:45:18;2.70;;;1.30;;
42742;SDS011;28397;44.552;-0.848;2023-03-12T12:47:47;3.40;;;1.13;;
42742;SDS011;28397;44.552;-0.848;2023-03-12T12:50:19;2.13;;;1.17;;
42742;SDS011;28397;44.552;-0.848;2023-03-12T12:53:34;2.90;;;1.05;;
42742;SDS011;28397;44.552;-0.848;2023-03-12T12:58:17;2.88;;;1.10;;
42742;SDS011;28397;44.552;-0.848;2023-03-12T13:00:56;2.20;;;1.08;;
42742;SDS011;28397;44.552;-0.848;2023-03-12T13:03:24;2.63;;;1.13;;
42742;SDS011;28397;44.552;-0.848;2023-03-12T13:13:45;2.35;;;1.13;;
42742;SDS011;28397;44.552;-0.848;2023-03-12T13:16:39;2.67;;;1.00;;
42742;SDS011;28397;44.552;-0.848;2023-03-12T13:21:40;3.47;;;1.75;;
42742;SDS011;28397;44.552;-0.848;2023-03-12T13:29:49;3.35;;;1.20;;
42742;SDS011;28397;44.552;-0.848;2023-03-12T13:34:59;3.92;;;1.30;;
42742;SDS011;28397;44.552;-0.848;2023-03-12T13:43:02;2.05;;;1.30;;
42742;SDS011;28397;44.552;-0.848;2023-03-12T13:45:32;2.65;;;1.40;;
42742;SDS011;28397;44.552;-0.848;2023-03-12T13:48:04;2.45;;;1.60;;
42742;SDS011;28397;44.552;-0.848;2023-03-12T13:50:40;4.35;;;3.20;;
42742;SDS011;28397;44.552;-0.848;2023-03-12T13:53:18;4.47;;;3.50;;
42742;SDS011;28397;44.552;-0.848;2023-03-12T14:01:29;2.38;;;2.10;;
42742;SDS011;28397;44.552;-0.848;2023-03-12T14:04:03;2.45;;;1.70;;
42742;SDS011;28397;44.552;-0.848;2023-03-12T14:06:33;2.90;;;1.40;;
42742;SDS011;28397;44.552;-0.848;2023-03-12T14:09:19;2.55;;;1.67;;
42742;SDS011;28397;44.552;-0.848;2023-03-12T14:11:59;3.10;;;1.30;;
42742;SDS011;28397;44.552;-0.848;2023-03-12T14:17:27;2.25;;;1.08;;
42742;SDS011;28397;44.552;-0.848;2023-03-12T14:20:01;2.17;;;1.40;;
42742;SDS011;28397;44.552;-0.848;2023-03-12T14:22:35;2.25;;;1.05;;
42742;SDS011;28397;44.552;-0.848;2023-03-12T14:25:13;1.77;;;0.95;;
42742;SDS011;28397;44.552;-0.848;2023-03-12T14:28:03;2.20;;;1.13;;
42742;SDS011;28397;44.552;-0.848;2023-03-12T14:30:40;2.38;;;1.15;;
42742;SDS011;28397;44.552;-0.848;2023-03-12T14:33:29;2.10;;;1.15;;
42742;SDS011;28397;44.552;-0.848;2023-03-12T14:38:36;3.63;;;1.40;;
42742;SDS011;28397;44.552;-0.848;2023-03-12T14:41:08;2.85;;;1.60;;
42742;SDS011;28397;44.552;-0.848;2023-03-12T14:43:42;1.90;;;1.30;;
42742;SDS011;28397;44.552;-0.848;2023-03-12T14:46:14;2.70;;;1.33;;
42742;SDS011;28397;44.552;-0.848;2023-03-12T14:48:42;1.77;;;1.10;;
42742;SDS011;28397;44.552;-0.848;2023-03-12T14:51:24;2.05;;;1.17;;
42742;SDS011;28397;44.552;-0.848;2023-03-12T14:53:52;2.65;;;1.42;;
42742;SDS011;28397;44.552;-0.848;2023-03-12T14:56:25;1.75;;;1.00;;
42742;SDS011;28397;44.552;-0.848;2023-03-12T14:58:54;2.53;;;1.20;;
42742;SDS011;28397;44.552;-0.848;2023-03-12T15:01:32;2.20;;;1.25;;
42742;SDS011;28397;44.552;-0.848;2023-03-12T15:04:04;2.55;;;1.10;;
42742;SDS011;28397;44.552;-0.848;2023-03-12T15:06:46;1.23;;;1.10;;
42742;SDS011;28397;44.552;-0.848;2023-03-12T15:09:27;2.90;;;0.90;;
42742;SDS011;28397;44.552;-0.848;2023-03-12T15:11:55;1.70;;;1.00;;
42742;SDS011;28397;44.552;-0.848;2023-03-12T15:14:23;1.55;;;1.30;;
42742;SDS011;28397;44.552;-0.848;2023-03-12T15:16:53;2.13;;;0.88;;
42742;SDS011;28397;44.552;-0.848;2023-03-12T15:19:20;1.73;;;0.93;;
42742;SDS011;28397;44.552;-0.848;2023-03-12T15:21:51;1.65;;;1.10;;
42742;SDS011;28397;44.552;-0.848;2023-03-12T15:24:18;2.67;;;1.20;;
42742;SDS011;28397;44.552;-0.848;2023-03-12T15:26:44;1.85;;;1.10;;
42742;SDS011;28397;44.552;-0.848;2023-03-12T15:31:42;1.90;;;0.90;;
42742;SDS011;28397;44.552;-0.848;2023-03-12T15:36:50;3.15;;;1.10;;
42742;SDS011;28397;44.552;-0.848;2023-03-12T15:42:15;2.15;;;1.10;;
42742;SDS011;28397;44.552;-0.848;2023-03-12T15:44:44;2.13;;;1.30;;
42742;SDS011;28397;44.552;-0.848;2023-03-12T15:47:16;2.35;;;1.38;;
42742;SDS011;28397;44.552;-0.848;2023-03-12T15:49:47;1.67;;;1.00;;
42742;SDS011;28397;44.552;-0.848;2023-03-12T15:57:47;1.75;;;0.95;;
42742;SDS011;28397;44.552;-0.848;2023-03-12T16:03:16;1.77;;;1.00;;
42742;SDS011;28397;44.552;-0.848;2023-03-12T16:05:43;1.83;;;1.10;;
42742;SDS011;28397;44.552;-0.848;2023-03-12T16:10:40;5.68;;;1.58;;
42742;SDS011;28397;44.552;-0.848;2023-03-12T16:13:08;2.17;;;1.15;;
42742;SDS011;28397;44.552;-0.848;2023-03-12T16:15:38;1.38;;;0.93;;
42742;SDS011;28397;44.552;-0.848;2023-03-12T16:18:04;2.28;;;0.80;;
42742;SDS011;28397;44.552;-0.848;2023-03-12T16:20:35;1.55;;;0.90;;
42742;SDS011;28397;44.552;-0.848;2023-03-12T16:23:01;1.42;;;1.00;;
42742;SDS011;28397;44.552;-0.848;2023-03-12T16:25:26;1.90;;;1.42;;
42742;SDS011;28397;44.552;-0.848;2023-03-12T16:27:54;1.50;;;1.00;;
42742;SDS011;28397;44.552;-0.848;2023-03-12T16:30:23;2.38;;;1.40;;
42742;SDS011;28397;44.552;-0.848;2023-03-12T16:32:54;2.25;;;1.35;;
42742;SDS011;28397;44.552;-0.848;2023-03-12T16:35:21;1.55;;;1.20;;
42742;SDS011;28397;44.552;-0.848;2023-03-12T16:37:47;1.48;;;1.08;;
42742;SDS011;28397;44.552;-0.848;2023-03-12T16:40:13;2.30;;;1.00;;
42742;SDS011;28397;44.552;-0.848;2023-03-12T16:42:44;1.70;;;0.90;;
42742;SDS011;28397;44.552;-0.848;2023-03-12T16:45:14;1.77;;;0.90;;
42742;SDS011;28397;44.552;-0.848;2023-03-12T16:47:41;3.15;;;1.10;;
42742;SDS011;28397;44.552;-0.848;2023-03-12T16:50:12;2.22;;;1.10;;
42742;SDS011;28397;44.552;-0.848;2023-03-12T16:52:39;4.68;;;1.48;;
42742;SDS011;28397;44.552;-0.848;2023-03-12T16:55:05;2.53;;;1.40;;
42742;SDS011;28397;44.552;-0.848;2023-03-12T16:57:34;2.30;;;1.40;;
42742;SDS011;28397;44.552;-0.848;2023-03-12T17:00:03;1.92;;;1.27;;
42742;SDS011;28397;44.552;-0.848;2023-03-12T17:02:32;1.95;;;1.00;;
42742;SDS011;28397;44.552;-0.848;2023-03-12T17:04:59;3.15;;;1.40;;
42742;SDS011;28397;44.552;-0.848;2023-03-12T17:07:25;3.78;;;1.30;;
42742;SDS011;28397;44.552;-0.848;2023-03-12T17:09:51;3.30;;;1.70;;
42742;SDS011;28397;44.552;-0.848;2023-03-12T17:12:18;4.15;;;1.50;;
42742;SDS011;28397;44.552;-0.848;2023-03-12T17:15:25;3.88;;;1.80;;
42742;SDS011;28397;44.552;-0.848;2023-03-12T17:17:50;14.68;;;9.88;;
42742;SDS011;28397;44.552;-0.848;2023-03-12T17:20:18;51.50;;;40.92;;
42742;SDS011;28397;44.552;-0.848;2023-03-12T17:22:44;8.38;;;4.93;;
42742;SDS011;28397;44.552;-0.848;2023-03-12T17:27:50;37.08;;;29.83;;
42742;SDS011;28397;44.552;-0.848;2023-03-12T17:30:16;158.10;;;141.02;;